Menemsha, Massachusetts
Current Conditions -  °F | °C
As of 7:01 PM on Wednesday 26 Nov 2014 (Local Time) from KMVY Reporting Station
Light Rain Light Rain  
Wind Chill: 36°   Ceiling: 900
Heat Index: 45°   Visibility: 5mi
Dew Point: 43°   Wind: 28mph
Humidity: 93%   Direction: 40°NE
Pressure: 29.61"   Gusts: 41mph
Location:  41.35°N, 70.76°W
Report Text: KMVY 270001Z AUTO 04024G36KT 5SM -RA BR BKN009 OVC015 07/06 A2961 RMK AO2 PK WND 05036/0001 PRESFR P0001 T00720061
Loading
Personal Weather Stations






























Interactive Weather Map New forecast layout! Learn more

10-Day Weather Forecast

Advertisements
Track Severe Weather on mobile